Time;durP1;ratioP1;P1;durP2;ratioP2;P2;SDS_P1;SDS_P2;PMS_P1;PMS_P2;Temp;Humidity;BMP_temperature;BMP_pressure;BME280_temperature;BME280_humidity;BME280_pressure;Samples;Min_cycle;Max_cycle;Signal;HPM_P1;HPM_P2
2022/08/08 00:00:06;;;;;;;5.78;4.10;;;;;;;14.51;100.00;101359.59;5075434;28;20054;-76
2022/08/08 00:03:16;;;;;;;5.10;3.50;;;;;;;14.49;100.00;101361.47;5083710;28;20024;-76
2022/08/08 00:05:53;;;;;;;5.75;3.40;;;;;;;14.32;100.00;101334.06;5063525;28;20063;-76
2022/08/08 00:08:32;;;;;;;7.85;3.63;;;;;;;14.47;100.00;101353.59;5076798;28;20036;-76
2022/08/08 00:11:27;;;;;;;7.55;4.05;;;;;;;14.46;100.00;101346.63;5071185;28;20086;-76
2022/08/08 00:14:13;;;;;;;4.93;3.53;;;;;;;14.53;100.00;101363.03;5065599;28;20040;-76
2022/08/08 00:16:53;;;;;;;7.47;3.90;;;;;;;14.47;100.00;101344.78;5066235;28;20032;-76
2022/08/08 00:19:26;;;;;;;10.55;4.95;;;;;;;14.47;100.00;101350.09;5078806;28;20040;-76
2022/08/08 00:21:59;;;;;;;8.83;4.57;;;;;;;14.45;100.00;101350.19;5109838;28;20038;-76
2022/08/08 00:24:40;;;;;;;6.85;4.20;;;;;;;14.37;100.00;101344.41;5096677;28;20040;-76
2022/08/08 00:27:08;;;;;;;6.63;3.75;;;;;;;14.33;100.00;101341.06;5071585;28;20016;-76
2022/08/08 00:29:45;;;;;;;6.63;4.32;;;;;;;14.24;100.00;101333.56;5052036;28;20029;-77
2022/08/08 00:32:35;;;;;;;9.65;4.70;;;;;;;14.40;100.00;101361.94;5090849;28;20972;-76
2022/08/08 00:35:24;;;;;;;8.82;4.68;;;;;;;14.41;100.00;101359.19;5079251;28;20042;-75
2022/08/08 00:38:11;;;;;;;9.20;4.57;;;;;;;14.40;100.00;101360.13;5060012;28;20034;-76
2022/08/08 00:40:57;;;;;;;6.05;4.80;;;;;;;14.38;100.00;101358.50;5077941;28;20428;-75
2022/08/08 00:43:49;;;;;;;6.55;4.47;;;;;;;14.33;100.00;101367.50;5076352;28;20040;-75
2022/08/08 00:46:21;;;;;;;10.35;5.10;;;;;;;14.31;100.00;101368.50;5067423;28;20028;-75
2022/08/08 00:49:04;;;;;;;6.85;4.95;;;;;;;14.25;100.00;101361.75;5091747;28;20028;-75
2022/08/08 00:51:44;;;;;;;6.60;4.55;;;;;;;14.15;100.00;101363.13;5074210;28;20063;-77
2022/08/08 00:54:41;;;;;;;9.13;5.55;;;;;;;14.09;100.00;101358.13;5086355;28;20029;-76
2022/08/08 00:57:15;;;;;;;7.05;4.90;;;;;;;14.03;100.00;101363.72;5104220;28;20020;-76
2022/08/08 01:00:06;;;;;;;6.00;4.60;;;;;;;13.93;100.00;101351.88;5057154;28;20034;-76
2022/08/08 01:03:10;;;;;;;7.72;5.15;;;;;;;13.80;100.00;101333.13;5080619;28;20029;-76
2022/08/08 01:05:47;;;;;;;8.48;5.38;;;;;;;13.95;100.00;101357.97;4995330;28;20029;-76
2022/08/08 01:08:38;;;;;;;8.32;4.90;;;;;;;14.00;100.00;101363.88;5072288;28;20032;-76
2022/08/08 01:11:28;;;;;;;7.10;5.10;;;;;;;13.95;100.00;101360.59;5081745;28;20098;-77
2022/08/08 01:13:56;;;;;;;7.47;5.03;;;;;;;13.95;100.00;101355.31;5056862;28;20117;-76
2022/08/08 01:16:44;;;;;;;7.57;5.38;;;;;;;13.92;100.00;101355.47;5063712;28;20047;-77
2022/08/08 01:19:31;;;;;;;7.28;5.80;;;;;;;13.88;100.00;101350.41;5057499;28;20032;-76
2022/08/08 01:22:18;;;;;;;7.40;5.38;;;;;;;13.88;100.00;101347.75;5074062;28;20021;-74
2022/08/08 01:25:05;;;;;;;8.48;5.95;;;;;;;13.87;100.00;101341.63;5082020;28;20123;-75
2022/08/08 01:27:49;;;;;;;7.90;5.55;;;;;;;13.87;100.00;101341.63;5089971;28;20020;-75
2022/08/08 01:30:39;;;;;;;10.68;5.68;;;;;;;13.84;100.00;101341.75;5081778;28;20034;-75
2022/08/08 01:33:38;;;;;;;9.27;5.88;;;;;;;13.85;100.00;101346.13;5087948;28;20020;-75
2022/08/08 01:36:38;;;;;;;8.48;5.90;;;;;;;13.81;100.00;101339.28;5079638;28;20028;-75
2022/08/08 01:39:28;;;;;;;8.45;6.68;;;;;;;13.85;100.00;101338.19;5078733;28;20028;-77
2022/08/08 01:42:04;;;;;;;11.20;7.28;;;;;;;13.83;100.00;101345.31;5074697;28;20117;-76
2022/08/08 01:44:35;;;;;;;9.27;6.55;;;;;;;13.81;100.00;101342.78;5065059;28;20037;-75
2022/08/08 01:47:22;;;;;;;7.97;5.80;;;;;;;13.83;100.00;101340.91;5074149;28;20085;-75
2022/08/08 01:49:56;;;;;;;7.93;6.00;;;;;;;13.88;100.00;101340.69;5059391;28;20071;-75
2022/08/08 01:52:51;;;;;;;10.60;7.07;;;;;;;13.91;100.00;101343.19;5067761;28;20048;-76
2022/08/08 01:56:05;;;;;;;9.85;6.88;;;;;;;13.83;100.00;101335.63;5060501;28;20028;-77
2022/08/08 01:58:45;;;;;;;11.13;7.55;;;;;;;13.89;100.00;101342.38;5051170;28;20068;-76
2022/08/08 02:01:41;;;;;;;9.63;7.03;;;;;;;13.85;100.00;101330.28;5060776;28;20085;-76
2022/08/08 02:04:40;;;;;;;9.43;7.40;;;;;;;13.96;100.00;101351.72;5055075;28;20028;-76
2022/08/08 02:07:10;;;;;;;13.65;7.68;;;;;;;13.91;100.00;101353.75;5080048;28;20099;-77
2022/08/08 02:09:59;;;;;;;20.80;7.75;;;;;;;13.93;100.00;101351.88;5109266;28;20016;-76
2022/08/08 02:12:48;;;;;;;11.68;7.55;;;;;;;13.85;100.00;101343.50;5063763;28;20077;-78
2022/08/08 02:15:20;;;;;;;12.18;7.60;;;;;;;13.81;100.00;101336.63;5060814;28;20029;-77
2022/08/08 02:17:59;;;;;;;12.50;7.45;;;;;;;13.78;100.00;101334.13;5072600;28;20024;-78
2022/08/08 02:20:32;;;;;;;11.32;7.57;;;;;;;13.79;100.00;101335.84;5060574;28;20031;-78
2022/08/08 02:23:14;;;;;;;17.52;8.55;;;;;;;13.78;100.00;101336.78;5074745;28;20024;-79
2022/08/08 02:25:46;;;;;;;12.88;7.72;;;;;;;13.76;100.00;101328.06;5074708;28;20101;-79
2022/08/08 02:28:22;;;;;;;15.32;7.03;;;;;;;13.89;100.00;101350.31;5062278;28;20372;-78
2022/08/08 02:31:02;;;;;;;11.77;8.60;;;;;;;13.78;100.00;101335.00;5068300;28;20108;-77
2022/08/08 02:33:43;;;;;;;12.48;7.85;;;;;;;13.88;100.00;101351.25;5085440;28;20032;-78
2022/08/08 02:36:26;;;;;;;10.13;7.65;;;;;;;13.74;100.00;101327.28;5072650;28;20094;-78
2022/08/08 02:39:03;;;;;;;12.65;7.93;;;;;;;13.84;100.00;101344.41;5077543;28;20044;-78
2022/08/08 02:42:07;;;;;;;10.52;8.10;;;;;;;13.82;100.00;101344.47;5064502;28;20039;-76
2022/08/08 02:44:56;;;;;;;9.13;7.15;;;;;;;13.78;100.00;101326.22;5067698;28;20055;-77
2022/08/08 02:47:46;;;;;;;11.38;8.13;;;;;;;13.90;100.00;101341.47;5054659;28;20060;-76
2022/08/08 02:50:11;;;;;;;14.55;7.60;;;;;;;13.93;100.00;101343.94;5080911;28;20031;-77
2022/08/08 02:52:45;;;;;;;10.55;8.30;;;;;;;13.94;100.00;101345.66;5091049;28;20432;-77
2022/08/08 02:55:18;;;;;;;10.55;8.18;;;;;;;13.94;100.00;101342.16;5062926;28;20425;-77
2022/08/08 02:57:49;;;;;;;13.00;8.77;;;;;;;13.93;100.00;101341.31;5057548;28;20048;-76
2022/08/08 03:00:54;;;;;;;10.88;7.57;;;;;;;13.93;100.00;101343.94;5073815;28;20055;-75
2022/08/08 03:03:57;;;;;;;9.20;8.27;;;;;;;13.95;100.00;101347.41;5063723;28;20033;-76
2022/08/08 03:06:47;;;;;;;8.20;7.00;;;;;;;13.95;100.00;101343.88;5074482;28;20315;-76
2022/08/08 03:09:31;;;;;;;11.23;7.57;;;;;;;13.93;100.00;101345.72;5056067;28;20032;-76
2022/08/08 03:12:12;;;;;;;16.07;9.17;;;;;;;13.74;100.00;101314.09;5073454;28;20475;-76
2022/08/08 03:14:46;;;;;;;19.83;10.30;;;;;;;13.88;100.00;101340.69;5091354;28;20070;-76
2022/08/08 03:17:16;;;;;;;12.90;8.55;;;;;;;13.81;100.00;101334.00;5079091;28;20017;-76
2022/08/08 03:19:48;;;;;;;10.43;8.13;;;;;;;13.78;100.00;101340.28;5082551;28;20047;-76
2022/08/08 03:22:13;;;;;;;13.05;9.82;;;;;;;13.75;100.00;101347.50;5087039;28;20063;-77
2022/08/08 03:24:38;;;;;;;15.57;9.40;;;;;;;13.64;100.00;101333.94;5083028;28;20429;-76
2022/08/08 03:27:15;;;;;;;10.32;7.70;;;;;;;13.55;100.00;101327.28;5080338;28;20364;-77
2022/08/08 03:29:45;;;;;;;10.45;8.52;;;;;;;13.32;100.00;101291.44;5088316;28;20048;-76
2022/08/08 03:34:55;;;;;;;13.60;10.27;;;;;;;13.62;100.00;101359.59;5075858;28;20051;-77
2022/08/08 03:37:20;;;;;;;10.25;8.60;;;;;;;13.48;100.00;101346.16;5054535;28;20394;-76
2022/08/08 03:39:46;;;;;;;11.25;8.70;;;;;;;13.43;100.00;101342.88;5089033;28;20077;-76
2022/08/08 03:42:17;;;;;;;12.98;9.85;;;;;;;13.45;100.00;101351.59;5092387;28;20569;-76
2022/08/08 03:44:43;;;;;;;11.27;9.30;;;;;;;13.19;100.00;101315.81;5074164;28;20021;-76
2022/08/08 03:47:09;;;;;;;13.43;9.27;;;;;;;13.43;100.00;101362.22;5058046;28;20490;-76
2022/08/08 03:49:34;;;;;;;12.48;9.15;;;;;;;13.46;100.00;101371.78;5054939;28;20048;-75
2022/08/08 03:52:00;;;;;;;15.48;10.07;;;;;;;13.29;100.00;101352.28;5052132;28;20037;-76
2022/08/08 03:54:26;;;;;;;11.88;8.80;;;;;;;13.30;100.00;101356.66;5060492;28;20447;-76
2022/08/08 03:56:52;;;;;;;15.13;9.32;;;;;;;13.32;100.00;101365.34;5097492;28;20111;-75
2022/08/08 03:59:17;;;;;;;22.55;10.93;;;;;;;13.34;100.00;101359.16;5089165;28;20154;-76
2022/08/08 04:01:43;;;;;;;14.32;10.23;;;;;;;13.31;100.00;101353.06;5064334;28;20089;-75
2022/08/08 04:04:09;;;;;;;11.30;8.90;;;;;;;13.22;100.00;101348.22;5066142;28;20028;-76
2022/08/08 04:06:35;;;;;;;14.98;10.43;;;;;;;13.28;100.00;101355.84;5093300;28;20017;-75
2022/08/08 04:09:03;;;;;;;15.30;10.35;;;;;;;13.28;100.00;101361.13;5061621;28;20036;-75
2022/08/08 04:11:30;;;;;;;11.15;9.90;;;;;;;13.36;100.00;101367.84;5052346;28;20031;-78
2022/08/08 04:13:55;;;;;;;14.98;10.05;;;;;;;13.24;100.00;101367.50;5072796;28;20419;-76
2022/08/08 04:16:20;;;;;;;15.50;10.90;;;;;;;13.36;100.00;101391.59;5069705;28;20032;-76
2022/08/08 04:18:47;;;;;;;14.10;9.70;;;;;;;13.15;100.00;101354.69;5091627;28;20127;-76
2022/08/08 04:21:13;;;;;;;13.25;10.38;;;;;;;13.30;100.00;101383.03;5058942;28;20036;-75
2022/08/08 04:23:39;;;;;;;10.65;9.27;;;;;;;13.40;100.00;101393.19;5057979;28;20432;-75
2022/08/08 04:26:05;;;;;;;12.45;9.70;;;;;;;13.42;100.00;101397.44;5091416;28;20020;-75
2022/08/08 04:28:30;;;;;;;12.85;9.90;;;;;;;13.19;100.00;101350.13;5072706;28;20055;-75
2022/08/08 04:30:55;;;;;;;13.52;9.95;;;;;;;13.37;100.00;101388.03;5069677;28;20470;-75
2022/08/08 04:33:21;;;;;;;14.93;10.45;;;;;;;13.39;100.00;101380.91;5084491;28;20078;-76
2022/08/08 04:35:46;;;;;;;11.77;9.43;;;;;;;13.37;100.00;101385.41;5046283;28;20543;-76
2022/08/08 04:38:11;;;;;;;11.75;9.85;;;;;;;13.47;100.00;101392.84;5091658;28;20020;-76
2022/08/08 04:40:38;;;;;;;10.63;9.40;;;;;;;13.38;100.00;101387.13;5062734;28;20491;-76
2022/08/08 04:43:03;;;;;;;16.55;9.95;;;;;;;13.36;100.00;101370.47;5066867;28;20116;-76
2022/08/08 04:45:29;;;;;;;12.50;9.38;;;;;;;13.50;100.00;101394.47;5061570;28;20107;-76
2022/08/08 04:47:57;;;;;;;12.73;10.30;;;;;;;13.35;100.00;101382.00;5084469;28;20060;-76
2022/08/08 04:50:23;;;;;;;13.88;10.05;;;;;;;13.45;100.00;101392.03;5059259;28;20028;-76
2022/08/08 04:52:48;;;;;;;12.57;10.48;;;;;;;13.49;100.00;101387.47;5085024;28;20034;-76
2022/08/08 04:55:13;;;;;;;16.88;11.77;;;;;;;13.52;100.00;101392.63;5055441;28;20028;-76
2022/08/08 04:57:39;;;;;;;13.95;8.98;;;;;;;13.52;100.00;101393.47;5077419;28;20466;-75
2022/08/08 05:00:05;;;;;;;13.18;10.68;;;;;;;13.34;100.00;101352.09;5073901;28;20189;-75
2022/08/08 05:02:31;;;;;;;20.83;10.30;;;;;;;13.44;100.00;101371.00;5057317;28;20024;-76
2022/08/08 05:04:56;;;;;;;13.65;11.20;;;;;;;13.65;100.00;101404.34;5071744;28;20024;-75
2022/08/08 05:07:22;;;;;;;16.20;10.23;;;;;;;13.66;100.00;101392.81;5055223;28;20483;-76
2022/08/08 05:09:47;;;;;;;14.27;10.75;;;;;;;13.66;100.00;101396.31;5075131;28;20028;-76
2022/08/08 05:12:12;;;;;;;13.20;9.80;;;;;;;13.76;100.00;101402.88;5068675;28;20109;-75
2022/08/08 05:14:38;;;;;;;12.32;10.57;;;;;;;13.79;100.00;101396.59;5085479;28;20032;-77
2022/08/08 05:17:03;;;;;;;14.02;9.80;;;;;;;13.85;100.00;101401.59;5079020;28;20480;-75
2022/08/08 05:19:29;;;;;;;12.43;8.95;;;;;;;13.94;100.00;101409.09;5064938;28;20471;-75
2022/08/08 05:21:55;;;;;;;13.85;9.73;;;;;;;14.05;100.00;101406.78;5059880;28;20032;-75
2022/08/08 05:24:20;;;;;;;12.60;10.15;;;;;;;13.86;100.00;101379.53;5077975;28;20029;-75
2022/08/08 05:26:46;;;;;;;15.60;11.13;;;;;;;13.97;100.00;101389.56;5084459;28;20111;-75
2022/08/08 05:29:12;;;;;;;12.85;9.60;;;;;;;14.15;100.00;101410.69;5046498;28;20486;-76
2022/08/08 05:31:38;;;;;;;10.63;8.23;;;;;;;14.15;100.00;101410.69;5108032;28;20086;-76
2022/08/08 05:34:05;;;;;;;10.18;9.18;;;;;;;14.24;100.00;101407.59;5070205;28;20040;-76
2022/08/08 05:36:33;;;;;;;11.25;9.20;;;;;;;14.21;100.00;101410.41;5094520;27;20016;-76
2022/08/08 05:38:59;;;;;;;16.77;11.20;;;;;;;14.32;100.00;101418.66;5082730;28;20117;-76
2022/08/08 05:41:25;;;;;;;15.18;9.10;;;;;;;14.32;100.00;101413.38;5057434;28;20546;-76
2022/08/08 05:43:58;;;;;;;34.75;10.65;;;;;;;14.43;100.00;101410.22;5005661;28;20032;-76
2022/08/08 05:46:24;;;;;;;14.23;9.63;;;;;;;14.40;100.00;101396.31;5050681;28;20131;-76
2022/08/08 05:48:49;;;;;;;14.60;9.70;;;;;;;14.51;100.00;101412.47;5035529;28;20036;-76
2022/08/08 05:51:16;;;;;;;13.10;8.63;;;;;;;14.19;100.00;101348.78;5048928;28;20846;-74
2022/08/08 05:53:44;;;;;;;13.82;8.88;;;;;;;14.26;100.00;101365.25;5044388;28;20108;-75
2022/08/08 05:56:09;;;;;;;12.55;9.65;;;;;;;14.56;100.00;101400.75;5035319;28;20059;-74
2022/08/08 05:58:39;;;;;;;11.20;8.40;;;;;;;14.75;100.00;101427.97;5035918;28;20089;-75
2022/08/08 06:01:06;;;;;;;11.60;9.25;;;;;;;14.69;100.00;101415.06;5040638;28;20027;-74
2022/08/08 06:03:31;;;;;;;11.07;9.13;;;;;;;14.81;100.00;101442.69;5024876;28;20024;-75
2022/08/08 06:06:08;;;;;;;10.00;8.15;;;;;;;14.81;100.00;101429.44;5013687;28;20028;-75
2022/08/08 06:08:37;;;;;;;12.82;8.70;;;;;;;14.92;100.00;101439.47;5014183;28;20020;-75
2022/08/08 06:11:04;;;;;;;15.02;9.23;;;;;;;15.02;100.00;101446.88;5058613;28;20032;-75
2022/08/08 06:13:30;;;;;;;12.20;8.43;;;;;;;15.08;100.00;101457.13;5028496;28;20031;-76
2022/08/08 06:15:56;;;;;;;11.93;10.18;;;;;;;15.15;100.00;101455.03;5029099;28;20055;-77
2022/08/08 06:18:28;;;;;;;13.73;9.02;;;;;;;15.23;100.00;101451.06;5020076;28;20020;-76
2022/08/08 06:20:59;;;;;;;12.95;9.45;;;;;;;15.34;100.00;101453.97;5073594;28;20025;-76
2022/08/08 06:23:26;;;;;;;15.20;10.07;;;;;;;15.26;100.00;101445.59;5041919;28;20080;-76
2022/08/08 06:26:05;;;;;;;14.15;9.70;;;;;;;15.09;100.00;101429.75;5054313;28;20475;-74
2022/08/08 06:28:32;;;;;;;12.15;9.52;;;;;;;15.20;100.00;101453.88;5053156;28;20028;-74
2022/08/08 06:31:03;;;;;;;16.17;9.98;;;;;;;15.23;100.00;101451.06;5059881;28;20111;-75
2022/08/08 06:33:39;;;;;;;14.02;9.55;;;;;;;15.11;100.00;101425.22;5051999;28;20024;-75
2022/08/08 06:36:05;;;;;;;12.75;9.70;;;;;;;15.46;100.00;101467.50;5053054;28;20029;-74
2022/08/08 06:38:34;;;;;;;15.65;10.35;;;;;;;15.50;100.00;101455.84;5056770;28;20035;-75
2022/08/08 06:41:05;;;;;;;12.35;9.40;;;;;;;15.59;100.00;101450.06;5074080;28;20044;-74
2022/08/08 06:43:34;;;;;;;14.63;9.20;;;;;;;15.68;100.00;101457.53;5091310;28;20074;-74
2022/08/08 06:46:01;;;;;;;12.65;9.18;;;;;;;15.44;100.00;101405.84;5078831;28;20386;-74
2022/08/08 06:48:27;;;;;;;11.90;7.53;;;;;;;15.59;100.00;101411.16;5090086;28;20378;-74
2022/08/08 06:50:54;;;;;;;13.32;10.27;;;;;;;15.89;100.00;101450.16;5106952;28;20074;-74
2022/08/08 06:53:20;;;;;;;15.45;8.68;;;;;;;16.01;100.00;101468.91;5066994;28;20027;-75
2022/08/08 06:55:46;;;;;;;12.18;8.15;;;;;;;15.99;100.00;101449.56;5056242;28;20494;-74
2022/08/08 06:58:11;;;;;;;11.85;8.85;;;;;;;16.11;100.00;101461.31;5054997;28;20115;-75
2022/08/08 07:00:38;;;;;;;10.30;7.68;;;;;;;16.20;100.00;101466.09;5091279;28;20027;-75
2022/08/08 07:03:08;;;;;;;12.02;9.25;;;;;;;16.16;100.00;101465.41;5099317;28;20058;-75
2022/08/08 07:05:38;;;;;;;11.88;7.20;;;;;;;16.22;100.00;101473.00;5067757;28;20021;-74
2022/08/08 07:08:33;;;;;;;13.68;8.48;;;;;;;16.29;100.00;101471.72;5076222;28;20500;-76
2022/08/08 07:11:02;;;;;;;11.00;7.45;;;;;;;16.38;100.00;101482.75;5056163;28;20098;-75
2022/08/08 07:13:38;;;;;;;10.80;7.72;;;;;;;16.28;100.00;101454.13;5070838;28;20019;-75
2022/08/08 07:16:23;;;;;;;8.93;7.75;;;;;;;16.49;100.00;101478.56;5083015;28;20097;-75
2022/08/08 07:19:05;;;;;;;13.40;7.65;;;;;;;16.50;100.00;101458.16;5096886;28;20097;-74
2022/08/08 07:21:56;;;;;;;11.85;8.23;;;;;;;16.62;100.00;101468.13;5082770;28;20024;-74
2022/08/08 07:24:30;;;;;;;9.63;6.97;;;;;;;16.83;100.00;101482.81;5107096;28;20032;-74
2022/08/08 07:26:56;;;;;;;;;;;;;;;16.96;100.00;101486.44;5079968;28;20032;-74
2022/08/08 07:29:22;;;;;;;15.48;8.07;;;;;;;16.92;100.00;101471.63;5071528;28;19908;-76
2022/08/08 07:31:48;;;;;;;15.25;5.55;;;;;;;17.05;100.00;101472.63;5079040;28;20482;-75
2022/08/08 07:34:15;;;;;;;9.43;7.13;;;;;;;17.20;100.00;101487.63;5067228;28;20029;-75
2022/08/08 07:36:42;;;;;;;7.35;5.78;;;;;;;17.32;100.00;101497.53;5061596;28;20134;-73
2022/08/08 07:39:07;;;;;;;9.98;6.20;;;;;;;17.08;100.00;101445.88;5058182;28;20031;-76
2022/08/08 07:41:36;;;;;;;10.52;6.78;;;;;;;17.26;100.00;101468.66;5078252;28;20456;-76
2022/08/08 07:44:03;;;;;;;9.18;6.35;;;;;;;17.43;100.00;101480.06;5059772;28;20040;-74
2022/08/08 07:46:28;;;;;;;10.77;7.05;;;;;;;17.50;100.00;101479.59;5061416;28;20054;-76
2022/08/08 07:48:53;;;;;;;18.23;6.70;;;;;;;17.71;100.00;101499.56;5069586;28;20024;-76
2022/08/08 07:51:19;;;;;;;11.55;6.97;;;;;;;17.83;100.00;101504.13;5062211;28;20028;-76
2022/08/08 07:54:00;;;;;;;10.23;6.00;;;;;;;17.98;100.00;101506.78;5076241;28;20043;-77
2022/08/08 07:56:26;;;;;;;8.77;5.32;;;;;;;18.07;100.00;101504.38;5051338;28;20077;-74
2022/08/08 07:58:51;;;;;;;7.00;4.82;;;;;;;18.12;100.00;101499.59;5045177;28;20056;-75
2022/08/08 08:01:21;;;;;;;11.75;6.35;;;;;;;18.24;100.00;101520.13;5078763;28;20169;-75
2022/08/08 08:04:02;;;;;;;6.95;5.53;;;;;;;18.37;100.00;101520.19;5065695;28;20024;-74
2022/08/08 08:06:30;;;;;;;8.57;5.97;;;;;;;18.37;100.00;101506.88;5088320;28;20020;-75
2022/08/08 08:09:08;;;;;;;12.30;6.05;;;;;;;18.36;100.00;101492.72;5084301;28;20073;-76
2022/08/08 08:11:34;;;;;;;7.65;4.93;;;;;;;18.57;100.00;101513.59;5088611;28;20028;-79
2022/08/08 08:14:10;;;;;;;12.43;5.90;;;;;;;18.58;100.00;101509.97;5079627;28;20027;-75
2022/08/08 08:16:38;;;;;;;8.40;5.78;;;;;;;18.72;100.00;101523.25;5042457;28;20020;-76
2022/08/08 08:19:09;;;;;;;8.68;4.53;;;;;;;18.84;100.00;101522.41;5074353;28;20025;-76
2022/08/08 08:21:38;;;;;;;9.65;5.35;;;;;;;18.97;100.00;101527.78;5056304;28;20028;-77
2022/08/08 08:24:04;;;;;;;8.93;5.00;;;;;;;18.83;100.00;101494.06;5073314;28;20106;-78
2022/08/08 08:26:29;;;;;;;7.35;4.20;;;;;;;18.96;100.00;101499.44;5056083;28;20103;-77
2022/08/08 08:28:54;;;;;;;10.25;4.63;;;;;;;19.04;100.00;101499.75;5075957;28;20471;-76
2022/08/08 08:31:20;;;;;;;8.75;4.22;;;;;;;19.14;100.00;101507.03;5083317;28;20493;-78
2022/08/08 08:33:45;;;;;;;6.30;3.97;;;;;;;19.24;100.00;101508.13;5059987;28;20032;-76
2022/08/08 08:36:11;;;;;;;6.63;4.53;;;;;;;19.23;100.00;101494.91;5078256;28;20040;-78
2022/08/08 08:38:37;;;;;;;7.88;4.30;;;;;;;19.42;100.00;101516.69;5077983;28;20063;-78
2022/08/08 08:41:02;;;;;;;6.72;4.85;;;;;;;19.42;100.00;101513.16;5094425;28;20028;-77
2022/08/08 08:43:29;;;;;;;7.60;3.67;;;;;;;19.54;100.00;101514.97;5062257;28;20493;-76
2022/08/08 08:45:55;;;;;;;7.45;4.40;;;;;;;19.34;100.00;101471.00;5073319;28;20034;-74
2022/08/08 08:48:21;;;;;;;8.90;4.07;;;;;;;19.68;100.00;101522.88;5061294;28;20032;-77
2022/08/08 08:50:52;;;;;;;7.30;4.40;;;;;;;19.80;100.00;101522.03;5072372;28;20036;-77
2022/08/08 08:53:17;;;;;;;7.07;3.78;;;;;;;19.72;100.00;101505.69;5035951;28;20043;-78
2022/08/08 08:55:45;;;;;;;4.95;3.25;;;;;;;19.71;100.00;101511.97;5086039;28;20024;-78
2022/08/08 08:58:35;;;;;;;5.18;3.58;;;;;;;19.68;100.00;101502.41;5055362;28;20115;-76
2022/08/08 09:01:02;;;;;;;6.03;3.15;;;;;;;19.88;100.00;101533.00;5059685;28;20030;-76
2022/08/08 09:03:28;;;;;;;11.10;5.32;;;;;;;19.85;100.00;101519.88;5054996;28;20043;-79
2022/08/08 09:05:54;;;;;;;8.95;4.90;;;;;;;19.58;100.00;101464.00;5055255;28;20036;-78
2022/08/08 09:08:23;;;;;;;7.40;4.80;;;;;;;19.82;100.00;101498.75;5054468;28;20028;-78
2022/08/08 09:10:49;;;;;;;7.30;4.85;;;;;;;20.02;100.00;101522.19;5085642;28;20032;-78
2022/08/08 09:13:17;;;;;;;7.90;4.72;;;;;;;20.07;100.00;101520.06;5081451;28;20037;-78
2022/08/08 09:15:43;;;;;;;8.80;4.97;;;;;;;20.15;100.00;101520.34;5071378;28;20028;-79
2022/08/08 09:18:08;;;;;;;7.13;3.55;;;;;;;20.36;100.00;101531.31;5063059;28;20028;-78
2022/08/08 09:20:36;;;;;;;7.75;4.38;;;;;;;20.31;100.00;101507.63;5040743;28;20399;-77
2022/08/08 09:23:02;;;;;;;12.40;4.25;;;;;;;20.53;100.00;101532.75;5052736;28;20385;-78
2022/08/08 09:25:27;;;;;;;12.45;4.90;;;;;;;20.12;100.00;101453.84;5054614;28;20101;-78
2022/08/08 09:27:53;;;;;;;6.72;4.35;;;;;;;20.65;100.00;101529.19;5064159;28;20030;-77
2022/08/08 09:30:18;;;;;;;4.85;3.05;;;;;;;20.69;100.00;101522.63;5091245;28;20093;-79
2022/08/08 09:32:52;;;;;;;4.60;3.42;;;;;;;20.61;100.00;101493.00;5055403;28;20070;-80
2022/08/08 09:35:21;;;;;;;14.43;4.95;;;;;;;20.72;100.00;101511.72;5062382;28;20060;-80
2022/08/08 09:37:55;;;;;;;7.80;4.18;;;;;;;20.67;100.00;101514.75;5073034;28;20510;-79
2022/08/08 09:40:23;;;;;;;4.30;2.80;;;;;;;20.73;100.00;101508.09;5054985;28;20031;-78
2022/08/08 09:43:08;;;;;;;5.40;3.15;;;;;;;20.84;100.00;101518.84;5056986;28;20020;-77
2022/08/08 09:45:57;;;;;;;5.00;3.85;;;;;;;20.81;100.00;101503.03;5058386;28;20028;-79
2022/08/08 09:48:23;;;;;;;6.78;2.90;;;;;;;20.74;100.00;101477.75;5075618;28;20024;-76
2022/08/08 09:50:50;;;;;;;4.30;3.00;;;;;;;21.03;100.00;101521.81;5064582;28;20360;-76
2022/08/08 09:53:18;;;;;;;6.55;3.35;;;;;;;21.03;100.00;101511.13;5055114;28;20012;-76
2022/08/08 09:55:45;;;;;;;8.25;3.50;;;;;;;20.69;100.00;101447.84;5079598;28;20028;-76
2022/08/08 09:58:17;;;;;;;7.03;3.53;;;;;;;21.12;100.00;101491.75;5092668;28;20024;-76
2022/08/08 10:00:45;;;;;;;5.18;3.42;;;;;;;21.31;100.00;101513.44;5072343;28;20032;-77
2022/08/08 10:03:14;;;;;;;10.32;4.50;;;;;;;21.22;100.00;101489.22;5067211;28;20024;-76
2022/08/08 10:05:40;;;;;;;8.45;4.53;;;;;;;21.32;100.00;101514.28;5078523;28;20026;-77
2022/08/08 10:08:06;;;;;;;5.85;3.97;;;;;;;21.17;100.00;101478.03;5051829;28;20056;-77
2022/08/08 10:10:36;;;;;;;6.72;3.95;;;;;;;21.29;100.00;101488.63;5070338;28;20081;-76
2022/08/08 10:13:24;;;;;;;5.40;3.80;;;;;;;21.46;100.00;101499.84;5055886;28;20036;-76
2022/08/08 10:15:54;;;;;;;7.63;4.18;;;;;;;21.51;100.00;101495.81;5074256;28;20036;-76
2022/08/08 10:18:28;;;;;;;4.40;2.97;;;;;;;21.73;100.00;101501.19;5075665;28;20077;-76
2022/08/08 10:21:00;;;;;;;4.70;2.80;;;;;;;21.85;100.00;101500.22;5078207;28;20032;-79
2022/08/08 10:23:48;;;;;;;5.30;3.15;;;;;;;21.93;99.56;101506.81;5101384;28;20025;-76
2022/08/08 10:26:21;;;;;;;5.63;3.28;;;;;;;21.95;98.70;101510.22;5067338;28;20718;-74
2022/08/08 10:28:55;;;;;;;6.30;3.40;;;;;;;21.92;97.37;101503.28;5066500;28;20087;-77
2022/08/08 10:34:08;;;;;;;5.53;2.95;;;;;;;21.75;99.30;101488.56;5077712;28;20471;-76
2022/08/08 10:36:36;;;;;;;10.05;3.38;;;;;;;21.84;97.67;101503.00;5069510;28;20028;-76
2022/08/08 10:39:02;;;;;;;4.43;3.25;;;;;;;21.95;96.80;101503.03;5051485;28;20462;-76
2022/08/08 10:41:30;;;;;;;5.63;3.45;;;;;;;21.87;98.50;101486.69;5089556;28;20039;-78
2022/08/08 10:43:57;;;;;;;6.53;3.22;;;;;;;21.96;96.84;101491.38;5080975;28;20031;-76
2022/08/08 10:46:26;;;;;;;5.05;3.10;;;;;;;22.01;96.86;101464.22;5071376;28;20025;-76
2022/08/08 10:48:53;;;;;;;5.07;3.20;;;;;;;22.08;94.74;101470.78;5080145;28;20025;-77
2022/08/08 10:51:19;;;;;;;7.18;4.22;;;;;;;22.30;91.71;101501.06;5076401;28;20505;-77
2022/08/08 10:53:49;;;;;;;5.45;4.00;;;;;;;22.33;92.95;101478.53;5076700;28;20024;-76
2022/08/08 10:56:16;;;;;;;6.07;3.22;;;;;;;22.36;91.14;101488.97;5076508;28;20896;-76
2022/08/08 10:58:42;;;;;;;7.40;3.17;;;;;;;22.23;88.15;101456.16;5092926;28;20091;-75
2022/08/08 11:01:08;;;;;;;7.25;3.70;;;;;;;22.23;87.20;101493.66;5080004;28;20047;-81
2022/08/08 11:03:41;;;;;;;3.85;2.90;;;;;;;22.02;86.74;101457.91;5067630;28;20082;-78
2022/08/08 11:06:07;;;;;;;5.13;3.03;;;;;;;22.01;85.05;101461.53;5075875;28;20080;-76
2022/08/08 11:08:32;;;;;;;5.15;3.10;;;;;;;22.21;87.34;101479.50;5047231;28;20120;-75
2022/08/08 11:11:08;;;;;;;5.28;3.92;;;;;;;22.27;86.83;101474.50;5035387;28;20126;-77
2022/08/08 11:13:42;;;;;;;4.85;3.47;;;;;;;22.34;83.68;101469.50;5035892;28;20112;-74
2022/08/08 11:16:19;;;;;;;6.00;3.17;;;;;;;22.56;84.66;101479.28;5056537;28;20097;-78
2022/08/08 11:18:48;;;;;;;9.70;3.10;;;;;;;22.66;85.29;101458.78;5085496;28;20032;-76
2022/08/08 11:21:14;;;;;;;6.75;3.13;;;;;;;23.00;86.20;101473.78;5052058;28;20052;-77
2022/08/08 11:23:41;;;;;;;6.18;3.70;;;;;;;23.19;83.82;101455.13;5064841;28;20550;-79
2022/08/08 11:26:12;;;;;;;5.60;3.22;;;;;;;22.91;82.63;101470.03;5063119;28;20035;-79
2022/08/08 11:28:39;;;;;;;13.57;3.45;;;;;;;22.90;84.87;101467.50;5051216;28;20460;-80
2022/08/08 11:31:05;;;;;;;7.78;3.33;;;;;;;23.08;83.18;101460.56;5050162;28;20451;-79
2022/08/08 11:33:33;;;;;;;12.63;3.17;;;;;;;23.30;81.60;101455.03;5050847;28;20024;-76
2022/08/08 11:35:59;;;;;;;11.15;2.97;;;;;;;23.60;79.77;101464.97;5050106;28;20086;-77
2022/08/08 11:38:24;;;;;;;5.40;3.28;;;;;;;23.45;79.80;101434.13;5077565;28;20025;-78
2022/08/08 11:40:51;;;;;;;6.28;3.47;;;;;;;23.87;79.69;101469.72;5082123;28;20043;-79
2022/08/08 11:43:17;;;;;;;4.68;2.92;;;;;;;24.01;80.51;101466.66;5047810;28;20021;-77